Time;durP1;ratioP1;P1;durP2;ratioP2;P2;SDS_P1;SDS_P2;PMS_P1;PMS_P2;Temp;Humidity;BMP_temperature;BMP_pressure;BME280_temperature;BME280_humidity;BME280_pressure;Samples;Min_cycle;Max_cycle;Signal;HPM_P1;HPM_P2
2021/09/28 00:00:57;;;;;;;8.68;1.50;;;;;;;8.53;100.00;102175.53;5157955;28;20030;-73
2021/09/28 00:03:28;;;;;;;55.75;3.42;;;;;;;8.46;100.00;102182.31;5161408;28;20391;-73
2021/09/28 00:05:58;;;;;;;8.45;1.60;;;;;;;8.41;100.00;102189.00;5171306;28;20015;-73
2021/09/28 00:08:29;;;;;;;5.45;1.80;;;;;;;8.36;100.00;102193.84;5172336;28;20030;-74
2021/09/28 00:10:59;;;;;;;7.40;3.33;;;;;;;8.31;100.00;102195.03;5169806;28;20030;-73
2021/09/28 00:13:30;;;;;;;3.53;1.40;;;;;;;8.28;100.00;102189.06;5181259;28;20403;-72
2021/09/28 00:16:01;;;;;;;5.05;1.48;;;;;;;8.25;100.00;102194.66;5182153;28;20025;-72
2021/09/28 00:18:31;;;;;;;9.07;2.88;;;;;;;8.24;100.00;102198.31;5161485;28;20573;-72
2021/09/28 00:21:02;;;;;;;5.40;1.83;;;;;;;8.23;100.00;102200.13;5174830;28;20105;-72
2021/09/28 00:23:32;;;;;;;7.45;1.67;;;;;;;8.21;100.00;102194.03;5170500;28;20026;-72
2021/09/28 00:26:03;;;;;;;12.15;2.42;;;;;;;8.18;100.00;102199.63;5181544;28;20025;-72
2021/09/28 00:28:34;;;;;;;10.43;1.65;;;;;;;8.17;100.00;102194.38;5181680;28;20455;-72
2021/09/28 00:31:04;;;;;;;7.93;1.55;;;;;;;8.14;100.00;102197.31;5181441;28;20391;-72
2021/09/28 00:33:35;;;;;;;3.28;1.30;;;;;;;8.13;100.00;102200.94;5181620;28;20029;-72
2021/09/28 00:36:05;;;;;;;9.90;1.75;;;;;;;8.12;100.00;102204.59;5168469;28;20380;-72
2021/09/28 00:38:36;;;;;;;8.98;2.28;;;;;;;8.12;100.00;102201.91;5181212;28;20026;-73
2021/09/28 00:41:07;;;;;;;8.43;1.60;;;;;;;8.10;100.00;102214.56;5181233;28;20530;-72
2021/09/28 00:43:54;;;;;;;7.75;1.55;;;;;;;8.07;100.00;102218.28;5181088;28;20037;-72
2021/09/28 00:46:25;;;;;;;11.43;1.67;;;;;;;8.05;100.00;102209.56;5181666;28;20105;-72
2021/09/28 00:48:56;;;;;;;7.35;1.25;;;;;;;8.05;100.00;102205.06;5167312;28;20028;-72
2021/09/28 00:51:27;;;;;;;7.03;1.35;;;;;;;8.05;100.00;102210.41;5181310;28;20034;-72
2021/09/28 00:53:58;;;;;;;3.17;1.30;;;;;;;8.04;100.00;102203.34;5167912;28;20032;-72
2021/09/28 00:56:29;;;;;;;2.95;1.40;;;;;;;8.05;100.00;102202.38;5168162;28;20031;-72
2021/09/28 00:59:01;;;;;;;7.97;1.42;;;;;;;8.03;100.00;102207.00;5173336;28;20045;-72
2021/09/28 01:01:32;;;;;;;11.05;1.98;;;;;;;8.05;100.00;102199.72;5175848;28;20093;-71
2021/09/28 01:04:03;;;;;;;15.07;2.03;;;;;;;8.12;100.00;102204.59;5181568;28;20475;-72
2021/09/28 01:06:34;;;;;;;16.48;3.25;;;;;;;8.18;100.00;102204.09;5168590;28;20032;-71
2021/09/28 01:09:04;;;;;;;8.80;1.88;;;;;;;8.21;100.00;102199.38;5170578;28;20030;-72
2021/09/28 01:11:35;;;;;;;18.05;2.20;;;;;;;8.27;100.00;102200.72;5156731;28;20022;-71
2021/09/28 01:14:07;;;;;;;12.23;1.80;;;;;;;8.31;100.00;102203.06;5159803;28;20464;-72
2021/09/28 01:16:38;;;;;;;10.18;2.17;;;;;;;8.39;100.00;102209.69;5180394;28;20030;-72
2021/09/28 01:19:09;;;;;;;9.48;2.13;;;;;;;8.46;100.00;102202.88;5180457;28;20037;-72
2021/09/28 01:21:39;;;;;;;13.48;2.15;;;;;;;8.50;100.00;102209.69;5161313;28;20447;-72
2021/09/28 01:24:14;;;;;;;12.18;2.30;;;;;;;8.54;100.00;102217.38;5160382;28;20400;-72
2021/09/28 01:27:04;;;;;;;17.75;2.35;;;;;;;8.60;100.00;102217.84;5172738;28;20056;-72
2021/09/28 01:29:34;;;;;;;10.73;2.47;;;;;;;8.63;100.00;102220.28;5180806;28;20705;-72
2021/09/28 01:32:05;;;;;;;13.73;2.20;;;;;;;8.66;100.00;102218.22;5181209;28;20026;-72
2021/09/28 01:34:36;;;;;;;11.63;2.22;;;;;;;8.65;100.00;102218.34;5160068;28;20105;-72
2021/09/28 01:37:06;;;;;;;15.90;2.20;;;;;;;8.62;100.00;102221.25;5174350;28;20030;-72
2021/09/28 01:39:37;;;;;;;17.67;1.90;;;;;;;8.61;100.00;102214.19;5180319;28;20026;-72
2021/09/28 01:42:09;;;;;;;8.27;2.42;;;;;;;8.62;100.00;102213.22;5180871;28;20030;-72
2021/09/28 01:44:39;;;;;;;20.70;2.95;;;;;;;8.59;100.00;102219.69;5180602;28;20394;-72
2021/09/28 01:47:10;;;;;;;13.05;2.10;;;;;;;8.55;100.00;102216.38;5163262;28;20440;-71
2021/09/28 01:49:41;;;;;;;11.20;2.10;;;;;;;8.51;100.00;102216.75;5160173;28;20443;-72
2021/09/28 01:52:17;;;;;;;11.15;2.10;;;;;;;8.47;100.00;102217.94;5166298;28;20029;-72
2021/09/28 01:54:48;;;;;;;11.90;2.45;;;;;;;8.44;100.00;102220.88;5180264;28;20494;-72
2021/09/28 01:57:20;;;;;;;12.38;2.45;;;;;;;8.42;100.00;102229.00;5173479;28;20028;-72
2021/09/28 02:00:31;;;;;;;7.10;2.35;;;;;;;8.39;100.00;102226.56;5161327;28;20030;-72
2021/09/28 02:03:03;;;;;;;19.38;1.77;;;;;;;8.37;100.00;102227.66;5179394;28;20022;-73
2021/09/28 02:05:36;;;;;;;6.63;1.77;;;;;;;8.37;100.00;102225.81;5169051;28;20095;-72
2021/09/28 02:08:07;;;;;;;9.60;1.90;;;;;;;8.37;100.00;102230.31;5171794;28;20487;-72
2021/09/28 02:10:38;;;;;;;5.80;1.95;;;;;;;8.36;100.00;102226.81;5179579;28;20048;-71
2021/09/28 02:13:09;;;;;;;14.85;1.83;;;;;;;8.36;100.00;102231.25;5176392;28;20389;-72
2021/09/28 02:15:39;;;;;;;16.42;2.38;;;;;;;8.35;100.00;102222.41;5159580;28;20077;-72
2021/09/28 02:18:10;;;;;;;9.90;2.17;;;;;;;8.32;100.00;102223.47;5159886;28;20018;-72
2021/09/28 02:20:41;;;;;;;9.63;2.00;;;;;;;8.29;100.00;102230.91;5159252;28;20405;-72
2021/09/28 02:23:11;;;;;;;10.98;2.10;;;;;;;8.26;100.00;102229.28;5159869;28;20023;-72
2021/09/28 02:25:42;;;;;;;15.07;2.08;;;;;;;8.24;100.00;102230.41;5159141;28;20125;-71
2021/09/28 02:28:12;;;;;;;9.35;2.03;;;;;;;8.25;100.00;102232.09;5167476;28;20076;-72
2021/09/28 02:30:43;;;;;;;6.80;1.58;;;;;;;8.23;100.00;102228.66;5164308;28;20114;-72
2021/09/28 02:33:13;;;;;;;13.82;1.98;;;;;;;8.23;100.00;102228.66;5159922;28;20031;-72
2021/09/28 02:35:44;;;;;;;12.60;2.42;;;;;;;8.19;100.00;102233.41;5162921;28;20022;-72
2021/09/28 02:38:14;;;;;;;11.32;2.53;;;;;;;8.14;100.00;102230.25;5180377;28;20030;-73
2021/09/28 02:40:45;;;;;;;9.90;2.22;;;;;;;8.09;100.00;102234.25;5161677;28;20264;-72
2021/09/28 02:43:15;;;;;;;8.35;2.30;;;;;;;8.04;100.00;102231.91;5179396;28;20033;-73
2021/09/28 02:45:47;;;;;;;13.20;2.63;;;;;;;8.05;100.00;102233.59;5166432;28;20052;-73
2021/09/28 02:48:18;;;;;;;8.98;2.08;;;;;;;8.09;100.00;102236.91;5166991;28;20026;-72
2021/09/28 02:50:49;;;;;;;17.38;3.03;;;;;;;8.11;100.00;102234.97;5158768;28;20467;-72
2021/09/28 02:53:19;;;;;;;12.57;2.22;;;;;;;8.11;100.00;102238.47;5173237;28;20459;-72
2021/09/28 02:55:50;;;;;;;13.52;3.50;;;;;;;8.11;100.00;102235.81;5170513;28;20054;-72
2021/09/28 02:58:20;;;;;;;12.48;2.40;;;;;;;8.10;100.00;102235.94;5174947;28;20025;-72
2021/09/28 03:00:51;;;;;;;18.63;2.60;;;;;;;8.07;100.00;102238.81;5179177;28;20026;-72
2021/09/28 03:03:21;;;;;;;20.23;2.58;;;;;;;8.00;100.00;102230.44;5162543;28;20033;-72
2021/09/28 03:05:52;;;;;;;13.45;2.85;;;;;;;7.93;100.00;102231.84;5158912;28;20015;-72
2021/09/28 03:08:22;;;;;;;20.92;2.85;;;;;;;7.86;100.00;102233.28;5171797;28;20252;-72
2021/09/28 03:10:53;;;;;;;12.82;2.80;;;;;;;7.81;100.00;102238.13;5158911;28;20033;-72
2021/09/28 03:13:23;;;;;;;11.15;2.03;;;;;;;7.78;100.00;102244.53;5177783;28;20021;-72
2021/09/28 03:15:54;;;;;;;7.28;1.90;;;;;;;7.70;100.00;102246.94;5166944;28;20384;-72
2021/09/28 03:18:24;;;;;;;18.40;3.13;;;;;;;7.68;100.00;102254.19;5172268;28;20097;-72
2021/09/28 03:20:55;;;;;;;16.77;2.55;;;;;;;7.65;100.00;102251.75;5158419;28;20088;-72
2021/09/28 03:23:25;;;;;;;9.80;1.98;;;;;;;7.62;100.00;102246.63;5166534;28;20021;-72
2021/09/28 03:25:56;;;;;;;7.57;2.45;;;;;;;7.58;100.00;102248.69;5165694;28;20480;-72
2021/09/28 03:28:26;;;;;;;11.38;2.30;;;;;;;7.53;100.00;102259.72;5170594;28;20360;-73
2021/09/28 03:30:57;;;;;;;9.13;2.50;;;;;;;7.49;100.00;102254.72;5172031;28;20030;-74
2021/09/28 03:33:28;;;;;;;18.50;3.53;;;;;;;7.46;100.00;102252.25;5158330;28;20033;-74
2021/09/28 03:35:59;;;;;;;32.30;4.22;;;;;;;7.47;100.00;102252.13;5158353;28;20030;-74
2021/09/28 03:38:29;;;;;;;12.90;2.55;;;;;;;7.48;100.00;102251.19;5162659;28;20257;-72
2021/09/28 03:41:00;;;;;;;16.13;3.05;;;;;;;7.51;100.00;102250.09;5167991;28;20216;-73
2021/09/28 03:43:31;;;;;;;16.50;3.00;;;;;;;7.48;100.00;102251.19;5183572;28;20502;-74
2021/09/28 03:46:02;;;;;;;14.02;3.00;;;;;;;7.44;100.00;102252.38;5183047;28;20018;-74
2021/09/28 03:48:32;;;;;;;9.20;3.05;;;;;;;7.40;100.00;102252.72;5183467;28;20068;-73
2021/09/28 03:51:03;;;;;;;7.60;2.47;;;;;;;7.39;100.00;102251.84;5183538;28;20038;-73
2021/09/28 03:53:34;;;;;;;5.15;1.85;;;;;;;7.38;100.00;102246.59;5180275;28;20065;-74
2021/09/28 03:56:04;;;;;;;12.13;2.10;;;;;;;7.34;100.00;102243.31;5173026;28;20465;-73
2021/09/28 03:58:35;;;;;;;10.27;2.45;;;;;;;7.31;100.00;102240.88;5179055;28;20076;-74
2021/09/28 04:01:05;;;;;;;8.50;2.30;;;;;;;7.31;100.00;102248.03;5163046;28;20069;-74
2021/09/28 04:03:35;;;;;;;11.00;2.97;;;;;;;7.31;100.00;102240.88;5169310;28;20049;-73
2021/09/28 04:06:06;;;;;;;14.90;2.95;;;;;;;7.31;100.00;102248.03;5184042;28;20121;-72
2021/09/28 04:08:36;;;;;;;7.85;2.13;;;;;;;7.29;100.00;102242.81;5169138;28;20041;-73
2021/09/28 04:11:07;;;;;;;19.40;2.17;;;;;;;7.25;100.00;102234.16;5163163;28;20022;-73
2021/09/28 04:13:40;;;;;;;9.32;2.17;;;;;;;7.21;100.00;102243.34;5176745;28;20026;-73
2021/09/28 04:16:10;;;;;;;6.45;1.80;;;;;;;7.18;100.00;102240.06;5177239;28;20391;-73
2021/09/28 04:18:41;;;;;;;16.00;1.88;;;;;;;7.12;100.00;102252.00;5163214;28;20050;-73
2021/09/28 04:21:12;;;;;;;8.93;2.13;;;;;;;7.06;100.00;102249.78;5161536;28;20387;-73
2021/09/28 04:23:42;;;;;;;6.15;1.98;;;;;;;7.01;100.00;102250.09;5172472;28;20046;-72
2021/09/28 04:26:13;;;;;;;7.75;2.10;;;;;;;7.00;100.00;102252.91;5168894;28;20052;-73
2021/09/28 04:28:44;;;;;;;11.25;2.17;;;;;;;6.98;100.00;102258.34;5182287;28;20443;-73
2021/09/28 04:31:16;;;;;;;7.57;2.30;;;;;;;6.96;100.00;102252.25;5168724;28;20072;-73
2021/09/28 04:33:46;;;;;;;8.60;2.30;;;;;;;6.92;100.00;102252.56;5169839;28;20500;-72
2021/09/28 04:36:17;;;;;;;6.78;2.28;;;;;;;6.87;100.00;102244.88;5161875;28;20117;-72
2021/09/28 04:38:47;;;;;;;7.68;2.15;;;;;;;6.81;100.00;102248.00;5161946;28;20030;-73
2021/09/28 04:41:18;;;;;;;10.57;2.30;;;;;;;6.79;100.00;102251.75;5181322;28;20028;-73
2021/09/28 04:43:49;;;;;;;3.17;1.77;;;;;;;6.76;100.00;102252.81;5179301;28;20037;-73
2021/09/28 04:46:19;;;;;;;7.35;1.95;;;;;;;6.73;100.00;102250.38;5161598;28;20030;-72
2021/09/28 04:48:50;;;;;;;8.00;2.25;;;;;;;6.71;100.00;102254.94;5161081;28;20058;-73
2021/09/28 04:51:20;;;;;;;5.20;1.92;;;;;;;6.70;100.00;102254.09;5161478;28;20026;-73
2021/09/28 04:53:51;;;;;;;7.80;2.13;;;;;;;6.67;100.00;102251.63;5166268;28;20132;-72
2021/09/28 04:56:21;;;;;;;6.82;1.73;;;;;;;6.64;100.00;102259.00;5181972;28;20391;-73
2021/09/28 04:58:52;;;;;;;3.58;1.48;;;;;;;6.62;100.00;102252.91;5167789;28;20029;-73
2021/09/28 05:01:22;;;;;;;4.78;1.20;;;;;;;6.59;100.00;102255.78;5167794;28;20045;-73
2021/09/28 05:03:52;;;;;;;5.72;1.90;;;;;;;6.56;100.00;102256.84;5161263;28;20030;-72
2021/09/28 05:06:23;;;;;;;4.03;1.63;;;;;;;6.55;100.00;102259.63;5174092;28;20022;-72
2021/09/28 05:08:53;;;;;;;6.82;2.15;;;;;;;6.53;100.00;102258.91;5175123;28;20061;-72
2021/09/28 05:11:24;;;;;;;7.93;2.15;;;;;;;6.52;100.00;102251.84;5177787;28;20053;-73
2021/09/28 05:13:54;;;;;;;11.05;2.55;;;;;;;6.52;100.00;102259.81;5171677;28;20021;-74
2021/09/28 05:16:25;;;;;;;8.77;2.33;;;;;;;6.52;100.00;102257.16;5163356;28;20057;-74
2021/09/28 05:18:55;;;;;;;9.63;2.47;;;;;;;6.52;100.00;102265.16;5160797;28;20026;-73
2021/09/28 05:21:26;;;;;;;5.22;2.17;;;;;;;6.51;100.00;102260.78;5166265;28;20054;-71
2021/09/28 05:23:56;;;;;;;5.60;1.98;;;;;;;6.49;100.00;102263.56;5167876;28;20022;-71
2021/09/28 05:26:27;;;;;;;9.57;2.60;;;;;;;6.47;100.00;102260.13;5173693;28;20028;-72
2021/09/28 05:28:57;;;;;;;3.65;1.20;;;;;;;6.44;100.00;102268.38;5161551;28;20423;-72
2021/09/28 05:31:29;;;;;;;5.15;1.65;;;;;;;6.43;100.00;102264.00;5181473;28;20124;-72
2021/09/28 05:33:59;;;;;;;6.68;2.30;;;;;;;6.42;100.00;102264.94;5165905;28;20512;-71
2021/09/28 05:36:30;;;;;;;6.22;1.73;;;;;;;6.42;100.00;102273.78;5170164;28;20036;-72
2021/09/28 05:39:00;;;;;;;6.47;1.48;;;;;;;6.43;100.00;102274.66;5167362;28;20541;-72
2021/09/28 05:41:31;;;;;;;4.78;1.80;;;;;;;6.42;100.00;102279.13;5178785;28;20063;-72
2021/09/28 05:44:01;;;;;;;8.00;1.80;;;;;;;6.42;100.00;102284.44;5180214;28;20021;-72
2021/09/28 05:46:32;;;;;;;5.53;1.73;;;;;;;6.42;100.00;102276.44;5169063;28;20025;-72
2021/09/28 05:49:02;;;;;;;5.13;1.42;;;;;;;6.45;100.00;102281.59;5159591;28;20035;-72
2021/09/28 05:51:35;;;;;;;5.05;1.80;;;;;;;6.49;100.00;102268.91;5160383;28;20392;-72
2021/09/28 05:54:07;;;;;;;5.68;1.88;;;;;;;6.56;100.00;102272.84;5172961;28;20022;-72
2021/09/28 05:56:38;;;;;;;10.27;2.47;;;;;;;6.63;100.00;102279.47;5159862;28;20073;-72
2021/09/28 05:59:08;;;;;;;6.50;2.40;;;;;;;6.68;100.00;102276.50;5158819;28;20034;-72
2021/09/28 06:01:39;;;;;;;7.35;1.77;;;;;;;6.70;100.00;102275.41;5160205;28;20092;-72
2021/09/28 06:04:10;;;;;;;6.57;1.67;;;;;;;6.76;100.00;102284.81;5159793;28;20100;-72
2021/09/28 06:06:41;;;;;;;3.28;1.33;;;;;;;6.80;100.00;102283.63;5177467;28;20018;-70
2021/09/28 06:09:12;;;;;;;3.58;1.27;;;;;;;6.86;100.00;102282.34;5179376;28;20358;-71
2021/09/28 06:11:43;;;;;;;4.68;1.45;;;;;;;6.95;100.00;102287.91;5166743;28;20501;-71
2021/09/28 06:14:14;;;;;;;5.95;1.48;;;;;;;7.08;100.00;102281.69;5180094;28;20033;-71
2021/09/28 06:16:44;;;;;;;7.22;1.67;;;;;;;7.24;100.00;102285.84;5180186;28;20446;-71
2021/09/28 06:19:15;;;;;;;4.35;1.77;;;;;;;7.36;100.00;102289.44;5179513;28;20084;-69
2021/09/28 06:21:46;;;;;;;4.85;1.90;;;;;;;7.49;100.00;102282.25;5162832;28;20553;-69
2021/09/28 06:24:16;;;;;;;5.38;1.40;;;;;;;7.63;100.00;102283.06;5164419;28;20471;-69
2021/09/28 06:26:48;;;;;;;2.72;1.10;;;;;;;7.75;100.00;102285.69;5159534;28;20028;-71
2021/09/28 06:29:18;;;;;;;2.33;1.08;;;;;;;7.91;100.00;102281.88;5158950;28;20018;-71
2021/09/28 06:31:48;;;;;;;7.88;2.00;;;;;;;8.16;100.00;102278.22;5159491;28;20109;-71
2021/09/28 06:34:19;;;;;;;6.40;2.20;;;;;;;8.47;100.00;102277.63;5159289;28;20402;-71
2021/09/28 06:36:50;;;;;;;10.43;1.92;;;;;;;8.78;100.00;102278.78;5159285;28;20339;-71
2021/09/28 06:39:20;;;;;;;3.80;1.70;;;;;;;9.30;100.00;102284.53;5171910;28;20114;-71
2021/09/28 06:41:51;;;;;;;9.45;2.25;;;;;;;9.77;100.00;102282.50;5172260;28;20022;-71
2021/09/28 06:44:21;;;;;;;10.63;2.15;;;;;;;10.27;100.00;102281.00;5179274;28;20558;-71
2021/09/28 06:46:52;;;;;;;14.52;1.92;;;;;;;10.77;100.00;102285.72;5166471;28;20080;-71
2021/09/28 06:49:22;;;;;;;10.15;2.50;;;;;;;11.59;100.00;102286.47;5170084;28;20022;-71
2021/09/28 06:51:53;;;;;;;10.50;1.90;;;;;;;12.15;100.00;102288.56;5159117;28;20033;-71
2021/09/28 06:54:24;;;;;;;26.08;2.35;;;;;;;12.33;100.00;102282.47;5158899;28;20054;-71
2021/09/28 06:56:55;;;;;;;5.05;1.70;;;;;;;12.89;100.00;102287.88;5164208;28;20026;-72
2021/09/28 06:59:26;;;;;;;13.48;1.70;;;;;;;12.88;100.00;102283.47;5168344;28;20032;-71
2021/09/28 07:01:57;;;;;;;10.80;2.20;;;;;;;13.10;100.00;102289.50;5177198;28;20033;-70
2021/09/28 07:04:27;;;;;;;9.10;1.65;;;;;;;13.65;100.00;102289.53;5179213;28;20025;-72
2021/09/28 07:07:01;;;;;;;7.05;1.80;;;;;;;13.79;100.00;102290.88;5159047;28;20021;-71
2021/09/28 07:09:33;;;;;;;8.48;1.85;;;;;;;13.88;100.00;102295.38;5174118;28;20565;-71
2021/09/28 07:12:04;;;;;;;8.75;1.55;;;;;;;13.79;100.00;102293.56;5156833;28;20077;-72
2021/09/28 07:14:34;;;;;;;4.45;1.50;;;;;;;14.15;100.00;102295.28;5157158;28;20034;-72
2021/09/28 07:17:04;;;;;;;6.40;1.75;;;;;;;14.12;100.00;102298.31;5157455;28;20408;-71
2021/09/28 07:19:35;;;;;;;7.45;1.60;;;;;;;14.22;100.00;102293.69;5160945;28;20036;-72
2021/09/28 07:22:05;;;;;;;10.27;1.58;;;;;;;14.14;100.00;102301.69;5177969;28;20030;-72
2021/09/28 07:24:36;;;;;;;9.00;2.10;;;;;;;14.30;100.00;102298.28;5158497;28;20050;-71
2021/09/28 07:27:06;;;;;;;9.20;2.03;;;;;;;14.56;100.00;102302.91;5170071;28;20018;-72
2021/09/28 07:29:37;;;;;;;12.85;1.98;;;;;;;14.62;100.00;102296.91;5170352;28;20404;-72
2021/09/28 07:32:07;;;;;;;7.78;1.63;;;;;;;14.35;100.00;102293.25;5170875;28;20026;-71
2021/09/28 07:34:38;;;;;;;8.82;2.00;;;;;;;14.61;100.00;102289.78;5166142;28;20033;-71
2021/09/28 07:37:09;;;;;;;9.15;2.08;;;;;;;14.97;100.00;102293.25;5161678;28;20027;-72
2021/09/28 07:39:39;;;;;;;9.52;2.08;;;;;;;14.71;100.00;102294.09;5166147;28;20053;-72
2021/09/28 07:42:10;;;;;;;10.45;2.00;;;;;;;14.90;100.00;102295.72;5177355;28;20486;-71
2021/09/28 07:44:40;;;;;;;11.02;2.03;;;;;;;15.27;100.00;102289.19;5167597;28;20483;-70
2021/09/28 07:47:11;;;;;;;9.35;2.20;;;;;;;15.50;100.00;102287.56;5161517;28;20030;-71
2021/09/28 07:49:42;;;;;;;6.28;1.70;;;;;;;15.89;100.00;102295.16;5165139;28;20022;-72
2021/09/28 07:52:13;;;;;;;10.70;2.10;;;;;;;16.00;100.00;102288.56;5162205;28;20061;-71
2021/09/28 07:54:43;;;;;;;7.53;2.28;;;;;;;15.95;100.00;102291.78;5164782;28;20185;-71
2021/09/28 07:57:14;;;;;;;11.80;1.60;;;;;;;16.38;100.00;102288.97;5176545;28;20104;-71
2021/09/28 07:59:44;;;;;;;9.65;1.80;;;;;;;16.51;100.00;102289.28;5163717;28;20076;-72
2021/09/28 08:02:17;;;;;;;7.03;1.70;;;;;;;16.25;100.00;102297.56;5159496;28;20399;-70
2021/09/28 08:04:47;;;;;;;14.15;2.25;;;;;;;16.26;100.00;102301.97;5163762;28;20049;-72
2021/09/28 08:07:18;;;;;;;6.68;1.83;;;;;;;16.12;100.00;102297.25;5177588;28;20464;-72
2021/09/28 08:09:48;;;;;;;10.38;1.88;;;;;;;16.05;100.00;102297.88;5173411;28;20033;-71
2021/09/28 08:12:19;;;;;;;10.05;2.28;;;;;;;16.28;100.00;102297.25;5157122;28;20028;-72
2021/09/28 08:14:49;;;;;;;6.45;1.75;;;;;;;16.20;100.00;102298.06;5156226;28;20466;-72
2021/09/28 08:17:21;;;;;;;10.13;2.33;;;;;;;16.21;100.00;102307.88;5139485;28;20088;-71
2021/09/28 08:19:52;;;;;;;8.40;1.85;;;;;;;16.30;100.00;102293.34;5156363;28;20026;-72
2021/09/28 08:22:24;;;;;;;12.60;1.95;;;;;;;16.30;100.00;102293.34;5157126;28;20053;-72
2021/09/28 08:24:56;;;;;;;6.82;1.63;;;;;;;16.58;100.00;102293.00;5173907;28;20059;-72
2021/09/28 08:30:15;;;;;;;9.60;1.83;;;;;;;16.70;100.00;102296.22;5160386;28;20026;-71
2021/09/28 08:32:46;;;;;;;10.45;1.90;;;;;;;17.04;100.00;102301.44;5173587;28;20030;-71
2021/09/28 08:35:17;;;;;;;10.52;2.38;;;;;;;17.45;100.00;102299.41;5172243;28;20026;-71
2021/09/28 08:37:47;;;;;;;10.15;2.03;;;;;;;17.44;100.00;102296.88;5167444;28;20044;-71
2021/09/28 08:40:19;;;;;;;8.60;2.15;;;;;;;17.41;100.00;102302.66;5180368;28;20030;-71
2021/09/28 08:42:54;;;;;;;17.40;2.38;;;;;;;17.58;100.00;102299.69;5162547;28;20117;-69
2021/09/28 08:45:25;;;;;;;6.15;1.90;;;;;;;17.48;100.00;102306.38;5168011;28;20032;-72
2021/09/28 08:47:55;;;;;;;8.63;2.10;;;;;;;17.91;100.00;102301.41;5170747;28;20026;-70
2021/09/28 08:50:26;;;;;;;9.20;2.00;;;;;;;17.80;100.00;102297.22;5176446;28;20030;-70
2021/09/28 08:52:56;;;;;;;8.57;2.20;;;;;;;17.85;100.00;102295.66;5169859;28;20030;-72
2021/09/28 08:55:27;;;;;;;9.93;2.25;;;;;;;17.24;100.00;102297.28;5172995;28;20122;-71
2021/09/28 08:58:14;;;;;;;11.82;2.45;;;;;;;17.03;100.00;102292.44;5172725;28;20022;-72
2021/09/28 09:00:47;;;;;;;9.10;2.13;;;;;;;17.03;100.00;102295.16;5160139;28;20038;-72
2021/09/28 09:03:29;;;;;;;11.98;1.92;;;;;;;16.97;100.00;102295.88;5163254;28;20119;-72
2021/09/28 09:06:00;;;;;;;10.00;1.85;;;;;;;17.50;100.00;102290.75;5180259;28;20533;-72
2021/09/28 09:08:36;;;;;;;15.05;3.53;;;;;;;17.24;100.00;102297.28;5148591;28;20069;-71
2021/09/28 09:11:10;;;;;;;;;;;;;;;17.35;100.00;102296.91;5173825;28;20466;-71
2021/09/28 09:13:50;;;;;;;7.65;1.90;;;;;;;17.72;100.00;102306.25;5180414;28;20012;-71
2021/09/28 09:16:34;;;;;;;12.20;2.08;;;;;;;17.59;100.00;102293.25;5180094;28;20458;-71
2021/09/28 09:19:29;;;;;;;8.77;2.58;;;;;;;17.51;100.00;102295.97;5168041;28;20030;-70
2021/09/28 09:22:01;;;;;;;21.77;4.13;;;;;;;17.54;100.00;102298.34;5167485;28;20080;-71
2021/09/28 09:24:41;;;;;;;8.73;2.10;;;;;;;17.46;100.00;102292.94;5167053;28;20034;-72
2021/09/28 09:27:19;;;;;;;10.88;2.22;;;;;;;17.67;100.00;102292.38;5150267;28;20033;-72
2021/09/28 09:30:19;;;;;;;10.02;2.33;;;;;;;17.49;100.00;102291.78;5166451;28;20045;-71
2021/09/28 09:32:56;;;;;;;9.77;2.58;;;;;;;17.58;100.00;102285.28;5161295;28;20034;-71
2021/09/28 09:35:32;;;;;;;9.00;2.08;;;;;;;17.47;100.00;102288.38;5171133;28;20121;-71
2021/09/28 09:38:15;;;;;;;16.02;2.50;;;;;;;17.49;100.00;102278.22;5159181;28;20477;-71
2021/09/28 09:40:48;;;;;;;7.72;1.90;;;;;;;17.60;100.00;102275.09;5157950;28;20034;-71
2021/09/28 09:43:29;;;;;;;8.25;1.90;;;;;;;17.55;100.00;102266.63;5150287;28;20030;-71
2021/09/28 09:46:07;;;;;;;10.02;1.98;;;;;;;17.74;100.00;102271.66;5166575;28;20025;-72
2021/09/28 09:48:41;;;;;;;12.13;2.25;;;;;;;17.50;100.00;102261.75;5176789;28;20040;-71
2021/09/28 09:51:17;;;;;;;12.20;2.05;;;;;;;17.62;100.00;102273.06;5158907;28;20026;-71
2021/09/28 09:53:54;;;;;;;10.77;2.13;;;;;;;18.12;100.00;102258.13;5172252;28;20064;-72
2021/09/28 09:56:50;;;;;;;11.98;2.40;;;;;;;18.16;100.00;102262.19;5158723;28;20431;-72
2021/09/28 09:59:23;;;;;;;11.98;2.40;;;;;;;18.34;100.00;102265.44;5168631;28;20054;-72
2021/09/28 10:01:53;;;;;;;10.95;2.70;;;;;;;18.36;100.00;102257.09;5166650;28;20034;-71
2021/09/28 10:04:24;;;;;;;13.05;2.25;;;;;;;18.23;100.00;102248.75;5167763;28;20032;-72
2021/09/28 10:06:56;;;;;;;12.90;2.38;;;;;;;18.27;100.00;102248.19;5171586;28;20418;-72
2021/09/28 10:09:28;;;;;;;10.25;3.17;;;;;;;18.41;100.00;102246.53;5175846;28;20076;-72
2021/09/28 10:12:02;;;;;;;11.27;2.65;;;;;;;18.47;100.00;102239.50;5165675;28;20017;-72
2021/09/28 10:14:41;;;;;;;11.85;2.63;;;;;;;18.33;100.00;102244.72;5176873;28;20105;-73
2021/09/28 10:17:28;;;;;;;11.48;3.85;;;;;;;18.28;100.00;102249.03;5158376;28;20053;-72
2021/09/28 10:20:03;;;;;;;16.33;3.70;;;;;;;18.12;100.00;102239.13;5157862;28;20026;-72
2021/09/28 10:22:33;;;;;;;11.90;4.15;;;;;;;17.99;100.00;102238.91;5159807;28;20022;-72
2021/09/28 10:25:19;;;;;;;14.23;3.25;;;;;;;17.95;100.00;102241.13;5170471;28;20042;-72
2021/09/28 10:27:54;;;;;;;19.83;3.90;;;;;;;18.05;100.00;102236.31;5170990;28;20030;-72
2021/09/28 10:30:31;;;;;;;;;;;;;;;18.48;100.00;102235.78;5170983;28;20033;-72
2021/09/28 10:33:11;;;;;;;9.55;2.80;;;;;;;18.42;100.00;102237.34;5140751;28;19931;-70
2021/09/28 10:35:56;;;;;;;7.95;2.28;;;;;;;18.27;100.00;102236.44;5171272;28;20076;-71
2021/09/28 10:38:47;;;;;;;15.40;2.33;;;;;;;17.82;100.00;102222.75;5157424;28;20117;-71
2021/09/28 10:41:44;;;;;;;11.63;2.45;;;;;;;17.89;100.00;102220.16;5164877;28;20267;-71
2021/09/28 10:44:36;;;;;;;10.63;1.88;;;;;;;18.01;100.00;102220.56;5171865;28;20018;-71
2021/09/28 10:47:08;;;;;;;7.22;1.63;;;;;;;17.87;100.00;102211.31;5160464;28;20025;-70
2021/09/28 10:49:39;;;;;;;9.75;2.00;;;;;;;17.88;100.00;102210.31;5178044;28;20101;-71
2021/09/28 10:52:21;;;;;;;6.90;1.75;;;;;;;17.92;100.00;102203.47;5173306;28;20109;-70
2021/09/28 10:55:11;;;;;;;6.72;1.95;;;;;;;18.14;100.00;102200.94;5170863;28;20029;-70
2021/09/28 10:57:53;;;;;;;9.00;1.67;;;;;;;18.43;100.00;102192.84;5157268;28;20563;-70
2021/09/28 11:00:26;;;;;;;7.35;1.90;;;;;;;18.73;100.00;102195.63;5170817;28;20484;-71
2021/09/28 11:02:59;;;;;;;11.13;2.05;;;;;;;18.68;100.00;102189.88;5157655;28;20072;-71
2021/09/28 11:05:30;;;;;;;12.80;2.17;;;;;;;18.55;100.00;102187.78;5164710;28;20026;-71
2021/09/28 11:08:02;;;;;;;10.70;1.48;;;;;;;18.30;100.00;102179.91;5176102;28;20030;-71
2021/09/28 11:10:33;;;;;;;10.73;1.83;;;;;;;18.10;100.00;102181.44;5165917;28;20025;-70
2021/09/28 11:13:07;;;;;;;10.75;2.17;;;;;;;18.28;100.00;102179.25;5164260;28;20022;-71
2021/09/28 11:15:38;;;;;;;10.95;1.63;;;;;;;18.52;100.00;102183.56;5177945;28;20053;-70
2021/09/28 11:18:13;;;;;;;6.95;1.73;;;;;;;18.64;100.00;102186.69;5159241;28;20061;-70
2021/09/28 11:20:43;;;;;;;7.47;1.65;;;;;;;18.62;100.00;102175.13;5169578;28;20026;-70
2021/09/28 11:23:14;;;;;;;7.43;1.67;;;;;;;18.61;100.00;102179.72;5163899;28;20014;-70
2021/09/28 11:25:53;;;;;;;11.23;1.80;;;;;;;18.92;100.00;102172.44;5177674;28;20068;-70
2021/09/28 11:28:24;;;;;;;9.38;1.90;;;;;;;19.29;100.00;102168.72;5164927;28;20033;-70
2021/09/28 11:31:03;;;;;;;11.15;1.83;;;;;;;19.33;100.00;102170.88;5174938;28;20026;-71
2021/09/28 11:33:38;;;;;;;8.05;1.70;;;;;;;19.30;100.00;102178.56;5150731;28;20026;-69
2021/09/28 11:36:12;;;;;;;8.90;1.55;;;;;;;18.95;100.00;102170.19;5164706;28;20026;-71
2021/09/28 11:38:46;;;;;;;7.07;1.60;;;;;;;19.04;100.00;102165.50;5163520;28;20415;-70
2021/09/28 11:41:22;;;;;;;8.35;1.55;;;;;;;18.97;100.00;102161.84;5164046;28;20014;-70
2021/09/28 11:43:55;;;;;;;9.52;1.75;;;;;;;18.80;100.00;102161.22;5173771;28;20026;-71
2021/09/28 11:46:28;;;;;;;9.75;1.50;;;;;;;18.67;100.00;102150.94;5173425;28;20041;-70